Hillsdale, Indiana
Current Conditions -  °F | °C
As of 6:15 PM on Wednesday 17 Dec 2014 (Local Time) from KPRG Reporting Station
Overcast Overcast  
Wind Chill: 19°   Ceiling: 1200
Heat Index: 25°   Visibility: 7mi
Dew Point: 22°   Wind: 5mph
Humidity: 89%   Direction: 280°W
Pressure: 30.3"   Gusts: NA
Location:  39.79°N, 87.39°W
Report Text: KPRG 172315Z AUTO 28004KT 7SM OVC012 M04/M06 A3030 RMK AO2 T10411057
Loading
Personal Weather Stations






























Interactive Weather Map New forecast layout! Learn more

10-Day Weather Forecast

Advertisements
Track Severe Weather on mobile